sensor_id;sensor_type;location;lat;lon;timestamp;P1;durP1;ratioP1;P2;durP2;ratioP2
1328;SDS011;658;48.820;9.354;2023-03-01T00:02:17;3.43;;;3.13;;
1328;SDS011;658;48.820;9.354;2023-03-01T00:06:18;3.00;;;2.80;;
1328;SDS011;658;48.820;9.354;2023-03-01T00:10:20;3.00;;;2.80;;
1328;SDS011;658;48.820;9.354;2023-03-01T00:14:20;3.10;;;2.90;;
1328;SDS011;658;48.820;9.354;2023-03-01T00:18:21;3.13;;;2.87;;
1328;SDS011;658;48.820;9.354;2023-03-01T00:22:22;3.30;;;3.00;;
1328;SDS011;658;48.820;9.354;2023-03-01T00:26:23;2.90;;;2.70;;
1328;SDS011;658;48.820;9.354;2023-03-01T00:30:25;2.83;;;2.63;;
1328;SDS011;658;48.820;9.354;2023-03-01T00:34:26;2.80;;;2.60;;
1328;SDS011;658;48.820;9.354;2023-03-01T00:38:26;3.40;;;3.20;;
1328;SDS011;658;48.820;9.354;2023-03-01T00:42:27;3.40;;;3.20;;
1328;SDS011;658;48.820;9.354;2023-03-01T00:46:27;3.17;;;2.97;;
1328;SDS011;658;48.820;9.354;2023-03-01T00:50:30;3.70;;;3.40;;
1328;SDS011;658;48.820;9.354;2023-03-01T00:54:30;3.80;;;3.60;;
1328;SDS011;658;48.820;9.354;2023-03-01T00:58:31;3.93;;;3.57;;
1328;SDS011;658;48.820;9.354;2023-03-01T01:02:33;3.90;;;3.60;;
1328;SDS011;658;48.820;9.354;2023-03-01T01:06:37;3.97;;;3.47;;
1328;SDS011;658;48.820;9.354;2023-03-01T01:10:43;3.67;;;3.47;;
1328;SDS011;658;48.820;9.354;2023-03-01T01:14:45;3.57;;;3.37;;
1328;SDS011;658;48.820;9.354;2023-03-01T01:18:46;3.90;;;3.60;;
1328;SDS011;658;48.820;9.354;2023-03-01T01:22:46;3.57;;;3.37;;
1328;SDS011;658;48.820;9.354;2023-03-01T01:26:47;4.50;;;4.10;;
1328;SDS011;658;48.820;9.354;2023-03-01T01:30:47;4.07;;;3.67;;
1328;SDS011;658;48.820;9.354;2023-03-01T01:34:48;3.80;;;3.50;;
1328;SDS011;658;48.820;9.354;2023-03-01T01:38:49;4.20;;;3.90;;
1328;SDS011;658;48.820;9.354;2023-03-01T01:42:49;3.90;;;3.70;;
1328;SDS011;658;48.820;9.354;2023-03-01T01:46:52;3.83;;;3.57;;
1328;SDS011;658;48.820;9.354;2023-03-01T01:51:02;4.20;;;3.80;;
1328;SDS011;658;48.820;9.354;2023-03-01T01:55:07;3.73;;;3.43;;
1328;SDS011;658;48.820;9.354;2023-03-01T01:59:11;4.13;;;3.83;;
1328;SDS011;658;48.820;9.354;2023-03-01T02:03:14;3.90;;;3.60;;
1328;SDS011;658;48.820;9.354;2023-03-01T02:07:22;4.07;;;3.70;;
1328;SDS011;658;48.820;9.354;2023-03-01T02:11:23;3.93;;;3.73;;
1328;SDS011;658;48.820;9.354;2023-03-01T02:15:25;3.97;;;3.67;;
1328;SDS011;658;48.820;9.354;2023-03-01T02:19:31;3.83;;;3.63;;
1328;SDS011;658;48.820;9.354;2023-03-01T02:23:47;4.37;;;3.97;;
1328;SDS011;658;48.820;9.354;2023-03-01T02:27:50;3.70;;;3.47;;
1328;SDS011;658;48.820;9.354;2023-03-01T02:32:11;3.70;;;3.40;;
1328;SDS011;658;48.820;9.354;2023-03-01T02:36:23;3.70;;;3.50;;
1328;SDS011;658;48.820;9.354;2023-03-01T02:40:29;4.40;;;4.10;;
1328;SDS011;658;48.820;9.354;2023-03-01T02:44:33;4.20;;;3.90;;
1328;SDS011;658;48.820;9.354;2023-03-01T02:48:41;4.40;;;4.10;;
1328;SDS011;658;48.820;9.354;2023-03-01T02:52:45;4.20;;;3.90;;
1328;SDS011;658;48.820;9.354;2023-03-01T02:56:53;4.07;;;3.77;;
1328;SDS011;658;48.820;9.354;2023-03-01T03:00:54;3.70;;;3.40;;
1328;SDS011;658;48.820;9.354;2023-03-01T03:04:56;3.90;;;3.60;;
1328;SDS011;658;48.820;9.354;2023-03-01T03:08:57;4.27;;;3.97;;
1328;SDS011;658;48.820;9.354;2023-03-01T03:12:59;3.67;;;3.47;;
1328;SDS011;658;48.820;9.354;2023-03-01T03:17:01;3.97;;;3.67;;
1328;SDS011;658;48.820;9.354;2023-03-01T03:21:10;4.10;;;3.80;;
1328;SDS011;658;48.820;9.354;2023-03-01T03:25:11;4.53;;;4.10;;
1328;SDS011;658;48.820;9.354;2023-03-01T03:29:13;3.63;;;3.43;;
1328;SDS011;658;48.820;9.354;2023-03-01T03:33:13;3.40;;;3.20;;
1328;SDS011;658;48.820;9.354;2023-03-01T03:37:14;3.57;;;3.37;;
1328;SDS011;658;48.820;9.354;2023-03-01T03:41:35;4.33;;;3.93;;
1328;SDS011;658;48.820;9.354;2023-03-01T03:45:36;4.07;;;3.77;;
1328;SDS011;658;48.820;9.354;2023-03-01T03:49:36;4.43;;;4.13;;
1328;SDS011;658;48.820;9.354;2023-03-01T03:53:37;4.33;;;4.03;;
1328;SDS011;658;48.820;9.354;2023-03-01T03:57:38;3.33;;;3.13;;
1328;SDS011;658;48.820;9.354;2023-03-01T04:01:40;4.50;;;4.20;;
1328;SDS011;658;48.820;9.354;2023-03-01T04:05:40;3.70;;;3.50;;
1328;SDS011;658;48.820;9.354;2023-03-01T04:09:42;4.27;;;3.97;;
1328;SDS011;658;48.820;9.354;2023-03-01T04:13:43;3.73;;;3.53;;
1328;SDS011;658;48.820;9.354;2023-03-01T04:17:44;3.70;;;3.40;;
1328;SDS011;658;48.820;9.354;2023-03-01T04:21:46;4.27;;;3.97;;
1328;SDS011;658;48.820;9.354;2023-03-01T04:29:54;3.80;;;3.60;;
1328;SDS011;658;48.820;9.354;2023-03-01T04:33:55;4.90;;;4.50;;
1328;SDS011;658;48.820;9.354;2023-03-01T04:37:56;4.50;;;4.20;;
1328;SDS011;658;48.820;9.354;2023-03-01T04:41:56;4.33;;;4.03;;
1328;SDS011;658;48.820;9.354;2023-03-01T04:46:01;4.00;;;3.80;;
1328;SDS011;658;48.820;9.354;2023-03-01T04:50:04;3.80;;;3.50;;
1328;SDS011;658;48.820;9.354;2023-03-01T04:54:04;3.67;;;3.47;;
1328;SDS011;658;48.820;9.354;2023-03-01T04:58:08;4.10;;;3.80;;
1328;SDS011;658;48.820;9.354;2023-03-01T05:02:09;4.23;;;3.93;;
1328;SDS011;658;48.820;9.354;2023-03-01T05:06:10;4.00;;;3.70;;
1328;SDS011;658;48.820;9.354;2023-03-01T05:10:11;3.87;;;3.63;;
1328;SDS011;658;48.820;9.354;2023-03-01T05:14:12;4.17;;;3.87;;
1328;SDS011;658;48.820;9.354;2023-03-01T05:18:13;3.83;;;3.53;;
1328;SDS011;658;48.820;9.354;2023-03-01T05:22:13;4.10;;;3.80;;
1328;SDS011;658;48.820;9.354;2023-03-01T05:26:15;3.87;;;3.57;;
1328;SDS011;658;48.820;9.354;2023-03-01T05:30:17;4.07;;;3.77;;
1328;SDS011;658;48.820;9.354;2023-03-01T05:34:18;3.80;;;3.50;;
1328;SDS011;658;48.820;9.354;2023-03-01T05:38:22;3.97;;;3.67;;
1328;SDS011;658;48.820;9.354;2023-03-01T05:42:25;3.23;;;3.03;;
1328;SDS011;658;48.820;9.354;2023-03-01T05:46:26;3.50;;;3.30;;
1328;SDS011;658;48.820;9.354;2023-03-01T05:50:28;3.20;;;3.00;;
1328;SDS011;658;48.820;9.354;2023-03-01T05:54:30;3.77;;;3.47;;
1328;SDS011;658;48.820;9.354;2023-03-01T05:58:30;3.93;;;3.63;;
1328;SDS011;658;48.820;9.354;2023-03-01T06:02:31;3.70;;;3.40;;
1328;SDS011;658;48.820;9.354;2023-03-01T06:06:35;3.63;;;3.43;;
1328;SDS011;658;48.820;9.354;2023-03-01T06:10:39;3.30;;;3.10;;
1328;SDS011;658;48.820;9.354;2023-03-01T06:14:40;3.60;;;3.23;;
1328;SDS011;658;48.820;9.354;2023-03-01T06:18:41;3.50;;;3.30;;
1328;SDS011;658;48.820;9.354;2023-03-01T06:22:42;3.63;;;3.33;;
1328;SDS011;658;48.820;9.354;2023-03-01T06:26:43;3.80;;;3.30;;
1328;SDS011;658;48.820;9.354;2023-03-01T06:30:44;4.10;;;3.70;;
1328;SDS011;658;48.820;9.354;2023-03-01T06:34:44;4.20;;;3.70;;
1328;SDS011;658;48.820;9.354;2023-03-01T06:38:45;3.77;;;3.47;;
1328;SDS011;658;48.820;9.354;2023-03-01T06:42:47;3.90;;;3.60;;
1328;SDS011;658;48.820;9.354;2023-03-01T06:46:49;3.53;;;3.33;;
1328;SDS011;658;48.820;9.354;2023-03-01T06:50:50;5.23;;;3.90;;
1328;SDS011;658;48.820;9.354;2023-03-01T06:54:50;6.47;;;3.73;;
1328;SDS011;658;48.820;9.354;2023-03-01T06:58:51;4.17;;;3.77;;
1328;SDS011;658;48.820;9.354;2023-03-01T07:02:52;3.90;;;3.60;;
1328;SDS011;658;48.820;9.354;2023-03-01T07:06:52;4.20;;;3.90;;
1328;SDS011;658;48.820;9.354;2023-03-01T07:10:55;4.00;;;3.70;;
1328;SDS011;658;48.820;9.354;2023-03-01T07:14:57;3.77;;;3.50;;
1328;SDS011;658;48.820;9.354;2023-03-01T07:18:57;7.90;;;5.13;;
1328;SDS011;658;48.820;9.354;2023-03-01T07:22:58;5.40;;;4.20;;
1328;SDS011;658;48.820;9.354;2023-03-01T07:26:59;4.90;;;4.07;;
1328;SDS011;658;48.820;9.354;2023-03-01T07:31:00;4.13;;;3.83;;
1328;SDS011;658;48.820;9.354;2023-03-01T07:35:02;4.73;;;4.23;;
1328;SDS011;658;48.820;9.354;2023-03-01T07:39:03;3.93;;;3.57;;
1328;SDS011;658;48.820;9.354;2023-03-01T07:43:03;4.27;;;3.97;;
1328;SDS011;658;48.820;9.354;2023-03-01T07:47:04;3.03;;;2.83;;
1328;SDS011;658;48.820;9.354;2023-03-01T07:51:05;4.47;;;3.80;;
1328;SDS011;658;48.820;9.354;2023-03-01T07:55:06;4.07;;;3.77;;
1328;SDS011;658;48.820;9.354;2023-03-01T07:59:07;4.43;;;3.80;;
1328;SDS011;658;48.820;9.354;2023-03-01T08:03:08;5.03;;;4.60;;
1328;SDS011;658;48.820;9.354;2023-03-01T08:07:08;4.00;;;3.63;;
1328;SDS011;658;48.820;9.354;2023-03-01T08:11:13;5.00;;;4.40;;
1328;SDS011;658;48.820;9.354;2023-03-01T08:15:14;4.40;;;3.60;;
1328;SDS011;658;48.820;9.354;2023-03-01T08:19:15;3.80;;;3.50;;
1328;SDS011;658;48.820;9.354;2023-03-01T08:23:15;4.37;;;3.80;;
1328;SDS011;658;48.820;9.354;2023-03-01T08:27:16;4.90;;;3.60;;
1328;SDS011;658;48.820;9.354;2023-03-01T08:35:30;4.80;;;4.37;;
1328;SDS011;658;48.820;9.354;2023-03-01T08:39:31;3.87;;;3.53;;
1328;SDS011;658;48.820;9.354;2023-03-01T08:43:31;4.07;;;3.77;;
1328;SDS011;658;48.820;9.354;2023-03-01T08:47:32;4.00;;;3.70;;
1328;SDS011;658;48.820;9.354;2023-03-01T08:51:33;3.80;;;3.47;;
1328;SDS011;658;48.820;9.354;2023-03-01T08:55:36;3.63;;;3.33;;
1328;SDS011;658;48.820;9.354;2023-03-01T08:59:37;5.10;;;3.87;;
1328;SDS011;658;48.820;9.354;2023-03-01T09:03:37;4.80;;;3.60;;
1328;SDS011;658;48.820;9.354;2023-03-01T09:07:38;4.60;;;3.83;;
1328;SDS011;658;48.820;9.354;2023-03-01T09:11:39;4.10;;;3.30;;
1328;SDS011;658;48.820;9.354;2023-03-01T09:15:40;4.47;;;3.77;;
1328;SDS011;658;48.820;9.354;2023-03-01T09:19:40;3.67;;;3.37;;
1328;SDS011;658;48.820;9.354;2023-03-01T09:23:42;3.63;;;3.37;;
1328;SDS011;658;48.820;9.354;2023-03-01T09:27:44;3.50;;;3.27;;
1328;SDS011;658;48.820;9.354;2023-03-01T09:31:44;3.77;;;3.43;;
1328;SDS011;658;48.820;9.354;2023-03-01T09:35:45;3.90;;;3.60;;
1328;SDS011;658;48.820;9.354;2023-03-01T09:39:46;3.97;;;3.67;;
1328;SDS011;658;48.820;9.354;2023-03-01T09:43:48;4.63;;;4.10;;
1328;SDS011;658;48.820;9.354;2023-03-01T09:47:56;3.20;;;2.93;;
1328;SDS011;658;48.820;9.354;2023-03-01T09:52:09;4.63;;;3.23;;
1328;SDS011;658;48.820;9.354;2023-03-01T09:56:37;3.27;;;3.07;;
1328;SDS011;658;48.820;9.354;2023-03-01T10:00:42;3.67;;;3.37;;
1328;SDS011;658;48.820;9.354;2023-03-01T10:04:48;3.20;;;3.00;;
1328;SDS011;658;48.820;9.354;2023-03-01T10:08:54;3.10;;;2.90;;
1328;SDS011;658;48.820;9.354;2023-03-01T10:13:19;3.00;;;2.80;;
1328;SDS011;658;48.820;9.354;2023-03-01T10:17:26;3.07;;;2.77;;
1328;SDS011;658;48.820;9.354;2023-03-01T10:21:41;3.53;;;3.30;;
1328;SDS011;658;48.820;9.354;2023-03-01T10:30:21;3.20;;;3.00;;
1328;SDS011;658;48.820;9.354;2023-03-01T10:34:33;2.77;;;2.57;;
1328;SDS011;658;48.820;9.354;2023-03-01T10:38:55;3.00;;;2.80;;
1328;SDS011;658;48.820;9.354;2023-03-01T10:42:58;3.23;;;3.03;;
1328;SDS011;658;48.820;9.354;2023-03-01T10:47:02;3.20;;;3.00;;
1328;SDS011;658;48.820;9.354;2023-03-01T10:51:05;3.10;;;2.87;;
1328;SDS011;658;48.820;9.354;2023-03-01T10:59:22;3.20;;;2.93;;
1328;SDS011;658;48.820;9.354;2023-03-01T11:03:30;2.70;;;2.50;;
1328;SDS011;658;48.820;9.354;2023-03-01T11:07:46;3.20;;;3.00;;
1328;SDS011;658;48.820;9.354;2023-03-01T11:11:53;3.47;;;3.27;;
1328;SDS011;658;48.820;9.354;2023-03-01T11:15:58;3.20;;;3.00;;
1328;SDS011;658;48.820;9.354;2023-03-01T11:20:17;3.23;;;3.03;;
1328;SDS011;658;48.820;9.354;2023-03-01T11:24:34;2.80;;;2.60;;
1328;SDS011;658;48.820;9.354;2023-03-01T11:28:41;3.27;;;3.07;;
1328;SDS011;658;48.820;9.354;2023-03-01T11:32:50;2.83;;;2.67;;
1328;SDS011;658;48.820;9.354;2023-03-01T11:37:03;3.53;;;3.23;;
1328;SDS011;658;48.820;9.354;2023-03-01T11:41:33;3.10;;;2.90;;
1328;SDS011;658;48.820;9.354;2023-03-01T11:45:42;3.00;;;2.80;;
1328;SDS011;658;48.820;9.354;2023-03-01T11:53:50;2.60;;;2.40;;
1328;SDS011;658;48.820;9.354;2023-03-01T12:06:17;3.10;;;2.90;;
1328;SDS011;658;48.820;9.354;2023-03-01T12:10:23;3.03;;;2.83;;
1328;SDS011;658;48.820;9.354;2023-03-01T12:28:25;4.07;;;2.83;;
1328;SDS011;658;48.820;9.354;2023-03-01T12:50:21;2.90;;;2.70;;
1328;SDS011;658;48.820;9.354;2023-03-01T12:54:27;2.80;;;2.63;;
1328;SDS011;658;48.820;9.354;2023-03-01T12:58:39;3.53;;;3.27;;
1328;SDS011;658;48.820;9.354;2023-03-01T13:02:56;2.63;;;2.50;;
1328;SDS011;658;48.820;9.354;2023-03-01T13:11:27;2.50;;;2.40;;
1328;SDS011;658;48.820;9.354;2023-03-01T13:15:31;3.13;;;2.93;;
1328;SDS011;658;48.820;9.354;2023-03-01T13:19:33;3.00;;;2.80;;
1328;SDS011;658;48.820;9.354;2023-03-01T13:23:37;2.93;;;2.73;;
1328;SDS011;658;48.820;9.354;2023-03-01T13:27:38;2.73;;;2.53;;
1328;SDS011;658;48.820;9.354;2023-03-01T13:35:41;2.77;;;2.57;;
1328;SDS011;658;48.820;9.354;2023-03-01T13:39:43;3.03;;;2.83;;
1328;SDS011;658;48.820;9.354;2023-03-01T13:43:44;2.90;;;2.57;;
1328;SDS011;658;48.820;9.354;2023-03-01T13:47:49;2.40;;;2.30;;
1328;SDS011;658;48.820;9.354;2023-03-01T13:51:54;2.70;;;2.60;;
1328;SDS011;658;48.820;9.354;2023-03-01T13:55:59;2.57;;;2.43;;
1328;SDS011;658;48.820;9.354;2023-03-01T14:00:23;2.50;;;2.40;;
1328;SDS011;658;48.820;9.354;2023-03-01T14:04:30;2.93;;;2.73;;
1328;SDS011;658;48.820;9.354;2023-03-01T14:08:35;2.83;;;2.70;;
1328;SDS011;658;48.820;9.354;2023-03-01T14:21:12;2.50;;;2.40;;
1328;SDS011;658;48.820;9.354;2023-03-01T14:25:33;2.70;;;2.60;;
1328;SDS011;658;48.820;9.354;2023-03-01T14:29:36;2.70;;;2.53;;
1328;SDS011;658;48.820;9.354;2023-03-01T14:33:37;2.37;;;2.17;;
1328;SDS011;658;48.820;9.354;2023-03-01T14:37:41;2.70;;;2.50;;
1328;SDS011;658;48.820;9.354;2023-03-01T14:41:41;2.93;;;2.73;;
1328;SDS011;658;48.820;9.354;2023-03-01T14:45:42;2.73;;;2.53;;
1328;SDS011;658;48.820;9.354;2023-03-01T14:49:49;2.40;;;2.20;;
1328;SDS011;658;48.820;9.354;2023-03-01T14:53:53;2.60;;;2.50;;
1328;SDS011;658;48.820;9.354;2023-03-01T14:57:55;2.50;;;2.40;;
1328;SDS011;658;48.820;9.354;2023-03-01T15:01:57;2.60;;;2.50;;
1328;SDS011;658;48.820;9.354;2023-03-01T15:05:59;2.57;;;2.40;;
1328;SDS011;658;48.820;9.354;2023-03-01T15:10:03;3.30;;;2.90;;
1328;SDS011;658;48.820;9.354;2023-03-01T15:14:24;2.70;;;2.50;;
1328;SDS011;658;48.820;9.354;2023-03-01T15:18:50;2.60;;;2.40;;
1328;SDS011;658;48.820;9.354;2023-03-01T15:22:55;3.00;;;2.77;;
1328;SDS011;658;48.820;9.354;2023-03-01T15:26:58;2.50;;;2.30;;
1328;SDS011;658;48.820;9.354;2023-03-01T15:31:37;2.67;;;2.47;;
1328;SDS011;658;48.820;9.354;2023-03-01T15:39:43;2.90;;;2.70;;
1328;SDS011;658;48.820;9.354;2023-03-01T15:43:55;2.73;;;2.53;;
1328;SDS011;658;48.820;9.354;2023-03-01T15:48:03;2.63;;;2.50;;
1328;SDS011;658;48.820;9.354;2023-03-01T15:52:24;2.97;;;2.77;;
1328;SDS011;658;48.820;9.354;2023-03-01T15:56:31;2.97;;;2.77;;
1328;SDS011;658;48.820;9.354;2023-03-01T16:00:32;2.77;;;2.57;;
1328;SDS011;658;48.820;9.354;2023-03-01T16:04:33;2.37;;;2.27;;
1328;SDS011;658;48.820;9.354;2023-03-01T16:08:34;2.57;;;2.37;;
1328;SDS011;658;48.820;9.354;2023-03-01T16:12:34;2.77;;;2.57;;
1328;SDS011;658;48.820;9.354;2023-03-01T16:16:35;2.80;;;2.60;;
1328;SDS011;658;48.820;9.354;2023-03-01T16:20:35;2.57;;;2.37;;
1328;SDS011;658;48.820;9.354;2023-03-01T16:24:36;2.73;;;2.53;;
1328;SDS011;658;48.820;9.354;2023-03-01T16:28:37;2.70;;;2.50;;
1328;SDS011;658;48.820;9.354;2023-03-01T16:32:42;2.50;;;2.40;;
1328;SDS011;658;48.820;9.354;2023-03-01T16:36:44;2.93;;;2.73;;
1328;SDS011;658;48.820;9.354;2023-03-01T16:40:48;2.80;;;2.60;;
1328;SDS011;658;48.820;9.354;2023-03-01T16:44:54;2.67;;;2.47;;
1328;SDS011;658;48.820;9.354;2023-03-01T16:48:57;2.93;;;2.73;;
1328;SDS011;658;48.820;9.354;2023-03-01T16:52:58;2.93;;;2.73;;
1328;SDS011;658;48.820;9.354;2023-03-01T16:56:58;2.60;;;2.50;;
1328;SDS011;658;48.820;9.354;2023-03-01T17:01:32;3.10;;;2.90;;
1328;SDS011;658;48.820;9.354;2023-03-01T17:05:32;3.40;;;3.10;;
1328;SDS011;658;48.820;9.354;2023-03-01T17:09:36;3.53;;;3.00;;
1328;SDS011;658;48.820;9.354;2023-03-01T17:13:37;3.20;;;3.00;;
1328;SDS011;658;48.820;9.354;2023-03-01T17:17:38;3.30;;;3.10;;
1328;SDS011;658;48.820;9.354;2023-03-01T17:21:39;3.23;;;3.03;;
1328;SDS011;658;48.820;9.354;2023-03-01T17:25:43;3.53;;;3.23;;
1328;SDS011;658;48.820;9.354;2023-03-01T17:29:45;3.25;;;2.95;;
1328;SDS011;658;48.820;9.354;2023-03-01T17:33:46;3.20;;;3.00;;
1328;SDS011;658;48.820;9.354;2023-03-01T17:37:47;2.90;;;2.70;;
1328;SDS011;658;48.820;9.354;2023-03-01T17:41:47;3.00;;;2.70;;
1328;SDS011;658;48.820;9.354;2023-03-01T17:45:48;5.20;;;3.20;;
1328;SDS011;658;48.820;9.354;2023-03-01T17:49:51;3.23;;;2.80;;
1328;SDS011;658;48.820;9.354;2023-03-01T17:53:51;3.50;;;3.30;;
1328;SDS011;658;48.820;9.354;2023-03-01T17:57:52;3.23;;;3.03;;
1328;SDS011;658;48.820;9.354;2023-03-01T18:01:53;4.43;;;4.03;;
1328;SDS011;658;48.820;9.354;2023-03-01T18:05:53;4.27;;;3.60;;
1328;SDS011;658;48.820;9.354;2023-03-01T18:09:54;5.30;;;4.80;;
1328;SDS011;658;48.820;9.354;2023-03-01T18:13:55;7.20;;;6.33;;
1328;SDS011;658;48.820;9.354;2023-03-01T18:17:56;6.67;;;5.47;;
1328;SDS011;658;48.820;9.354;2023-03-01T18:21:56;9.70;;;7.40;;
1328;SDS011;658;48.820;9.354;2023-03-01T18:25:59;7.00;;;6.33;;
1328;SDS011;658;48.820;9.354;2023-03-01T18:30:00;6.77;;;6.10;;
1328;SDS011;658;48.820;9.354;2023-03-01T18:34:01;6.53;;;5.83;;
1328;SDS011;658;48.820;9.354;2023-03-01T18:38:02;6.77;;;6.17;;
1328;SDS011;658;48.820;9.354;2023-03-01T18:42:03;8.00;;;6.80;;
1328;SDS011;658;48.820;9.354;2023-03-01T18:46:04;9.90;;;7.80;;
1328;SDS011;658;48.820;9.354;2023-03-01T18:50:05;9.33;;;7.70;;
1328;SDS011;658;48.820;9.354;2023-03-01T18:54:06;8.33;;;7.27;;
1328;SDS011;658;48.820;9.354;2023-03-01T18:58:07;8.77;;;6.80;;
1328;SDS011;658;48.820;9.354;2023-03-01T19:02:09;7.83;;;7.03;;
1328;SDS011;658;48.820;9.354;2023-03-01T19:06:10;8.50;;;7.60;;
1328;SDS011;658;48.820;9.354;2023-03-01T19:10:12;8.57;;;7.40;;
1328;SDS011;658;48.820;9.354;2023-03-01T19:14:16;9.43;;;7.97;;
1328;SDS011;658;48.820;9.354;2023-03-01T19:18:17;9.63;;;8.60;;
1328;SDS011;658;48.820;9.354;2023-03-01T19:22:17;10.60;;;8.87;;
1328;SDS011;658;48.820;9.354;2023-03-01T19:26:20;10.40;;;8.40;;
1328;SDS011;658;48.820;9.354;2023-03-01T19:30:22;15.97;;;11.20;;
1328;SDS011;658;48.820;9.354;2023-03-01T19:34:23;13.50;;;10.40;;
1328;SDS011;658;48.820;9.354;2023-03-01T19:38:24;14.40;;;10.93;;
1328;SDS011;658;48.820;9.354;2023-03-01T19:42:26;18.33;;;12.20;;
1328;SDS011;658;48.820;9.354;2023-03-01T19:46:27;17.17;;;12.13;;
1328;SDS011;658;48.820;9.354;2023-03-01T19:50:28;23.43;;;13.93;;
1328;SDS011;658;48.820;9.354;2023-03-01T19:54:29;16.23;;;12.40;;
1328;SDS011;658;48.820;9.354;2023-03-01T19:58:30;17.60;;;12.13;;
1328;SDS011;658;48.820;9.354;2023-03-01T20:02:31;22.57;;;13.90;;
1328;SDS011;658;48.820;9.354;2023-03-01T20:06:32;24.73;;;16.50;;
1328;SDS011;658;48.820;9.354;2023-03-01T20:10:40;26.80;;;17.20;;
1328;SDS011;658;48.820;9.354;2023-03-01T20:14:42;34.87;;;19.40;;
1328;SDS011;658;48.820;9.354;2023-03-01T20:18:43;39.40;;;22.13;;
1328;SDS011;658;48.820;9.354;2023-03-01T20:22:53;32.07;;;20.53;;
1328;SDS011;658;48.820;9.354;2023-03-01T20:26:54;36.13;;;21.87;;
1328;SDS011;658;48.820;9.354;2023-03-01T20:30:54;44.90;;;23.60;;
1328;SDS011;658;48.820;9.354;2023-03-01T20:35:02;45.07;;;25.80;;
1328;SDS011;658;48.820;9.354;2023-03-01T20:39:02;42.17;;;24.30;;
1328;SDS011;658;48.820;9.354;2023-03-01T20:43:03;42.07;;;25.53;;
1328;SDS011;658;48.820;9.354;2023-03-01T20:47:04;44.27;;;25.00;;
1328;SDS011;658;48.820;9.354;2023-03-01T20:51:05;48.43;;;26.23;;
1328;SDS011;658;48.820;9.354;2023-03-01T20:55:07;44.40;;;26.93;;
1328;SDS011;658;48.820;9.354;2023-03-01T20:59:09;45.03;;;27.43;;
1328;SDS011;658;48.820;9.354;2023-03-01T21:03:11;43.40;;;27.50;;
1328;SDS011;658;48.820;9.354;2023-03-01T21:07:11;43.57;;;28.50;;
1328;SDS011;658;48.820;9.354;2023-03-01T21:11:12;51.00;;;27.23;;
1328;SDS011;658;48.820;9.354;2023-03-01T21:15:15;44.00;;;27.90;;
1328;SDS011;658;48.820;9.354;2023-03-01T21:19:15;50.33;;;28.00;;
1328;SDS011;658;48.820;9.354;2023-03-01T21:23:16;39.70;;;27.70;;
1328;SDS011;658;48.820;9.354;2023-03-01T21:27:18;41.60;;;26.93;;
1328;SDS011;658;48.820;9.354;2023-03-01T21:31:20;48.27;;;28.47;;
1328;SDS011;658;48.820;9.354;2023-03-01T21:35:22;42.07;;;26.93;;
1328;SDS011;658;48.820;9.354;2023-03-01T21:39:23;44.43;;;28.33;;
1328;SDS011;658;48.820;9.354;2023-03-01T21:43:27;53.73;;;30.07;;
1328;SDS011;658;48.820;9.354;2023-03-01T21:47:28;45.17;;;28.73;;
1328;SDS011;658;48.820;9.354;2023-03-01T21:51:29;40.70;;;27.13;;
1328;SDS011;658;48.820;9.354;2023-03-01T21:55:30;43.70;;;28.20;;
1328;SDS011;658;48.820;9.354;2023-03-01T21:59:33;42.97;;;26.40;;
1328;SDS011;658;48.820;9.354;2023-03-01T22:03:33;40.60;;;27.33;;
1328;SDS011;658;48.820;9.354;2023-03-01T22:07:44;42.43;;;26.00;;
1328;SDS011;658;48.820;9.354;2023-03-01T22:11:45;42.83;;;26.13;;
1328;SDS011;658;48.820;9.354;2023-03-01T22:15:47;42.80;;;25.40;;
1328;SDS011;658;48.820;9.354;2023-03-01T22:19:48;41.97;;;24.17;;
1328;SDS011;658;48.820;9.354;2023-03-01T22:23:49;51.03;;;26.63;;
1328;SDS011;658;48.820;9.354;2023-03-01T22:27:51;40.33;;;25.90;;
1328;SDS011;658;48.820;9.354;2023-03-01T22:31:52;39.27;;;24.90;;
1328;SDS011;658;48.820;9.354;2023-03-01T22:35:54;39.90;;;23.80;;
1328;SDS011;658;48.820;9.354;2023-03-01T22:39:55;36.50;;;23.63;;
1328;SDS011;658;48.820;9.354;2023-03-01T22:43:56;38.27;;;25.27;;
1328;SDS011;658;48.820;9.354;2023-03-01T22:47:57;40.23;;;24.90;;
1328;SDS011;658;48.820;9.354;2023-03-01T22:52:03;39.07;;;23.67;;
1328;SDS011;658;48.820;9.354;2023-03-01T22:56:11;33.93;;;23.30;;
1328;SDS011;658;48.820;9.354;2023-03-01T23:00:13;37.80;;;23.20;;
1328;SDS011;658;48.820;9.354;2023-03-01T23:04:15;35.87;;;22.60;;
1328;SDS011;658;48.820;9.354;2023-03-01T23:08:16;32.57;;;22.07;;
1328;SDS011;658;48.820;9.354;2023-03-01T23:12:17;34.20;;;21.70;;
1328;SDS011;658;48.820;9.354;2023-03-01T23:16:18;32.70;;;20.30;;
1328;SDS011;658;48.820;9.354;2023-03-01T23:20:19;30.67;;;19.77;;
1328;SDS011;658;48.820;9.354;2023-03-01T23:24:21;31.40;;;20.00;;
1328;SDS011;658;48.820;9.354;2023-03-01T23:28:23;32.70;;;21.63;;
1328;SDS011;658;48.820;9.354;2023-03-01T23:32:24;28.50;;;18.60;;
1328;SDS011;658;48.820;9.354;2023-03-01T23:36:26;29.30;;;18.40;;
1328;SDS011;658;48.820;9.354;2023-03-01T23:40:28;30.57;;;20.20;;
1328;SDS011;658;48.820;9.354;2023-03-01T23:44:28;24.93;;;18.20;;
1328;SDS011;658;48.820;9.354;2023-03-01T23:48:29;25.37;;;17.30;;
1328;SDS011;658;48.820;9.354;2023-03-01T23:52:35;26.97;;;18.23;;
1328;SDS011;658;48.820;9.354;2023-03-01T23:56:38;26.00;;;17.50;;
